Ashland, Montana
Current Conditions -  °F | °C
As of 4:53 PM on Monday 24 Nov 2014 (Local Time) from KMLS Reporting Station
Clear Clear  
Wind Chill: -5°   Ceiling: Unl
Heat Index: -1°   Visibility: 10mi
Dew Point: -4°   Wind: 8mph
Humidity: 82%   Direction: 250°WSW
Pressure: 30.07"   Gusts: NA
Location:  45.62°N, 106.31°W
Report Text: KMLS 242353Z AUTO 25007KT 10SM CLR M01/M04 A3007 RMK AO2 SLP211 T10111039 10044 21011 51011
Loading
Personal Weather Stations






























Interactive Weather Map New forecast layout! Learn more

10-Day Weather Forecast

Advertisements
Track Severe Weather on mobile